Dupont, Louisiana
Current Conditions -  °F | °C
As of 8:15 AM on Sunday 21 Dec 2014 (Local Time) from KOPL Reporting Station
Haze Haze  
Wind Chill: 45°   Ceiling: 400
Heat Index: 45°   Visibility: 5mi
Dew Point: 44°   Wind: 3mph
Humidity: 97%   Direction: 20°NNE
Pressure: 30.13"   Gusts: NA
Location:  30.93°N, 91.95°W
Report Text: KOPL 211415Z AUTO 02003KT 5SM BR OVC004 07/07 A3013 RMK AO2 LTG DSNT E T00720068
Loading
Personal Weather Stations






























Interactive Weather Map New forecast layout! Learn more

10-Day Weather Forecast

Advertisements
Track Severe Weather on mobile